sensor_id;sensor_type;location;lat;lon;timestamp;P1;durP1;ratioP1;P2;durP2;ratioP2
78181;SDS011;67441;50.116;8.696;2023-02-03T14:05:45;4.65;;;0.82;;
78181;SDS011;67441;50.116;8.696;2023-02-03T14:07:54;3.40;;;0.60;;
78181;SDS011;67441;50.116;8.696;2023-02-03T14:08:57;4.72;;;0.80;;
78181;SDS011;67441;50.116;8.696;2023-02-03T14:12:58;3.70;;;0.70;;
78181;SDS011;67441;50.116;8.696;2023-02-03T14:14:39;2.88;;;0.70;;
78181;SDS011;67441;50.116;8.696;2023-02-03T14:16:24;2.65;;;0.73;;
78181;SDS011;67441;50.116;8.696;2023-02-03T14:18:42;3.80;;;0.80;;
78181;SDS011;67441;50.116;8.696;2023-02-03T14:20:51;1.30;;;0.63;;
78181;SDS011;67441;50.116;8.696;2023-02-03T14:22:08;1.20;;;0.52;;
78181;SDS011;67441;50.116;8.696;2023-02-03T14:23:18;2.40;;;0.70;;
78181;SDS011;67441;50.116;8.696;2023-02-03T14:24:28;2.38;;;0.80;;
78181;SDS011;67441;50.116;8.696;2023-02-03T14:27:03;0.80;;;0.50;;
78181;SDS011;67441;50.116;8.696;2023-02-03T14:28:13;0.75;;;0.57;;
78181;SDS011;67441;50.116;8.696;2023-02-03T14:29:24;4.63;;;0.68;;
78181;SDS011;67441;50.116;8.696;2023-02-03T14:30:28;0.80;;;0.65;;
78181;SDS011;67441;50.116;8.696;2023-02-03T14:31:28;2.05;;;0.50;;
78181;SDS011;67441;50.116;8.696;2023-02-03T14:35:14;2.20;;;0.60;;
78181;SDS011;67441;50.116;8.696;2023-02-03T14:36:37;2.15;;;0.75;;
78181;SDS011;67441;50.116;8.696;2023-02-03T14:37:50;0.95;;;0.43;;
78181;SDS011;67441;50.116;8.696;2023-02-03T14:38:51;2.75;;;0.70;;
78181;SDS011;67441;50.116;8.696;2023-02-03T14:40:02;1.52;;;0.68;;
78181;SDS011;67441;50.116;8.696;2023-02-03T14:41:28;2.30;;;0.60;;
78181;SDS011;67441;50.116;8.696;2023-02-03T14:46:57;1.00;;;0.50;;
78181;SDS011;67441;50.116;8.696;2023-02-03T14:49:50;1.10;;;0.68;;
78181;SDS011;67441;50.116;8.696;2023-02-03T14:52:27;1.63;;;0.50;;
78181;SDS011;67441;50.116;8.696;2023-02-03T14:57:26;2.38;;;0.60;;
78181;SDS011;67441;50.116;8.696;2023-02-03T14:58:20;1.80;;;0.98;;
78181;SDS011;67441;50.116;8.696;2023-02-03T14:59:28;1.60;;;0.52;;
78181;SDS011;67441;50.116;8.696;2023-02-03T15:00:36;2.63;;;0.60;;
78181;SDS011;67441;50.116;8.696;2023-02-03T15:02:39;2.67;;;0.55;;
78181;SDS011;67441;50.116;8.696;2023-02-03T15:06:35;4.15;;;1.08;;
78181;SDS011;67441;50.116;8.696;2023-02-03T15:08:45;9.27;;;0.80;;
78181;SDS011;67441;50.116;8.696;2023-02-03T15:09:46;2.13;;;0.52;;
78181;SDS011;67441;50.116;8.696;2023-02-03T15:10:50;5.50;;;0.93;;
78181;SDS011;67441;50.116;8.696;2023-02-03T15:11:50;6.07;;;1.35;;
78181;SDS011;67441;50.116;8.696;2023-02-03T15:12:51;3.97;;;0.88;;
78181;SDS011;67441;50.116;8.696;2023-02-03T15:13:53;4.60;;;0.98;;
78181;SDS011;67441;50.116;8.696;2023-02-03T15:16:24;6.07;;;1.20;;
78181;SDS011;67441;50.116;8.696;2023-02-03T15:17:26;7.80;;;1.30;;
78181;SDS011;67441;50.116;8.696;2023-02-03T15:18:31;6.88;;;1.23;;
78181;SDS011;67441;50.116;8.696;2023-02-03T15:19:38;12.32;;;1.83;;
78181;SDS011;67441;50.116;8.696;2023-02-03T15:20:44;14.45;;;1.73;;
78181;SDS011;67441;50.116;8.696;2023-02-03T15:21:45;10.27;;;1.38;;
78181;SDS011;67441;50.116;8.696;2023-02-03T15:22:45;11.10;;;1.42;;
78181;SDS011;67441;50.116;8.696;2023-02-03T15:23:46;6.40;;;1.45;;
78181;SDS011;67441;50.116;8.696;2023-02-03T15:24:48;6.45;;;1.40;;
78181;SDS011;67441;50.116;8.696;2023-02-03T15:25:52;7.43;;;1.67;;
78181;SDS011;67441;50.116;8.696;2023-02-03T15:26:54;8.23;;;2.00;;
78181;SDS011;67441;50.116;8.696;2023-02-03T15:28:18;7.72;;;1.60;;
78181;SDS011;67441;50.116;8.696;2023-02-03T15:29:23;7.78;;;1.80;;
78181;SDS011;67441;50.116;8.696;2023-02-03T15:30:27;6.32;;;1.90;;
78181;SDS011;67441;50.116;8.696;2023-02-03T15:32:35;6.55;;;1.20;;
78181;SDS011;67441;50.116;8.696;2023-02-03T15:33:40;7.15;;;1.40;;
78181;SDS011;67441;50.116;8.696;2023-02-03T15:34:46;5.95;;;1.23;;
78181;SDS011;67441;50.116;8.696;2023-02-03T15:35:48;7.45;;;1.50;;
78181;SDS011;67441;50.116;8.696;2023-02-03T15:36:56;8.82;;;1.52;;
78181;SDS011;67441;50.116;8.696;2023-02-03T15:38:03;10.18;;;1.63;;
78181;SDS011;67441;50.116;8.696;2023-02-03T15:39:51;6.57;;;1.90;;
78181;SDS011;67441;50.116;8.696;2023-02-03T15:40:45;11.80;;;1.60;;
78181;SDS011;67441;50.116;8.696;2023-02-03T15:41:49;6.00;;;1.20;;
78181;SDS011;67441;50.116;8.696;2023-02-03T15:43:56;8.00;;;1.10;;
78181;SDS011;67441;50.116;8.696;2023-02-03T15:46:26;8.60;;;1.25;;
78181;SDS011;67441;50.116;8.696;2023-02-03T15:47:47;3.65;;;1.40;;
78181;SDS011;67441;50.116;8.696;2023-02-03T15:48:57;6.03;;;1.40;;
78181;SDS011;67441;50.116;8.696;2023-02-03T15:51:34;6.68;;;1.20;;
78181;SDS011;67441;50.116;8.696;2023-02-03T15:52:39;5.15;;;1.42;;
78181;SDS011;67441;50.116;8.696;2023-02-03T15:54:59;4.75;;;1.30;;
78181;SDS011;67441;50.116;8.696;2023-02-03T15:56:11;6.03;;;1.67;;
78181;SDS011;67441;50.116;8.696;2023-02-03T15:57:23;4.88;;;0.85;;
78181;SDS011;67441;50.116;8.696;2023-02-03T15:58:27;5.22;;;1.40;;
78181;SDS011;67441;50.116;8.696;2023-02-03T15:59:31;4.03;;;0.80;;
78181;SDS011;67441;50.116;8.696;2023-02-03T16:00:35;4.03;;;1.10;;
78181;SDS011;67441;50.116;8.696;2023-02-03T16:01:39;5.07;;;1.08;;
78181;SDS011;67441;50.116;8.696;2023-02-03T16:02:43;4.45;;;1.10;;
78181;SDS011;67441;50.116;8.696;2023-02-03T16:03:46;5.47;;;1.05;;
78181;SDS011;67441;50.116;8.696;2023-02-03T16:04:54;2.17;;;0.73;;
78181;SDS011;67441;50.116;8.696;2023-02-03T16:05:55;3.58;;;1.00;;
78181;SDS011;67441;50.116;8.696;2023-02-03T16:06:55;5.38;;;0.90;;
78181;SDS011;67441;50.116;8.696;2023-02-03T16:08:23;5.30;;;0.98;;
78181;SDS011;67441;50.116;8.696;2023-02-03T16:09:29;9.32;;;0.90;;
78181;SDS011;67441;50.116;8.696;2023-02-03T16:10:32;4.85;;;1.63;;
78181;SDS011;67441;50.116;8.696;2023-02-03T16:11:34;2.83;;;1.10;;
78181;SDS011;67441;50.116;8.696;2023-02-03T16:12:36;2.95;;;0.90;;
78181;SDS011;67441;50.116;8.696;2023-02-03T16:13:41;5.35;;;1.30;;
78181;SDS011;67441;50.116;8.696;2023-02-03T16:14:42;4.90;;;0.93;;
78181;SDS011;67441;50.116;8.696;2023-02-03T16:15:43;8.35;;;1.42;;
78181;SDS011;67441;50.116;8.696;2023-02-03T16:16:49;4.88;;;1.00;;
78181;SDS011;67441;50.116;8.696;2023-02-03T16:17:54;5.03;;;1.00;;
78181;SDS011;67441;50.116;8.696;2023-02-03T16:18:59;5.72;;;1.13;;
78181;SDS011;67441;50.116;8.696;2023-02-03T16:21:20;3.80;;;0.90;;
78181;SDS011;67441;50.116;8.696;2023-02-03T16:22:36;3.58;;;1.77;;
78181;SDS011;67441;50.116;8.696;2023-02-03T16:23:39;6.93;;;1.13;;
78181;SDS011;67441;50.116;8.696;2023-02-03T16:24:48;4.25;;;1.00;;
78181;SDS011;67441;50.116;8.696;2023-02-03T16:26:01;4.78;;;1.00;;
78181;SDS011;67441;50.116;8.696;2023-02-03T16:27:53;2.30;;;0.80;;
78181;SDS011;67441;50.116;8.696;2023-02-03T16:28:26;4.43;;;0.88;;
78181;SDS011;67441;50.116;8.696;2023-02-03T16:29:45;5.43;;;1.02;;
78181;SDS011;67441;50.116;8.696;2023-02-03T16:32:34;2.33;;;1.00;;
78181;SDS011;67441;50.116;8.696;2023-02-03T16:33:53;3.10;;;0.73;;
78181;SDS011;67441;50.116;8.696;2023-02-03T16:35:12;4.97;;;0.75;;
78181;SDS011;67441;50.116;8.696;2023-02-03T16:36:31;1.65;;;0.95;;
78181;SDS011;67441;50.116;8.696;2023-02-03T16:39:11;3.92;;;0.75;;
78181;SDS011;67441;50.116;8.696;2023-02-03T16:40:30;3.35;;;1.15;;
78181;SDS011;67441;50.116;8.696;2023-02-03T16:41:49;5.65;;;0.75;;
78181;SDS011;67441;50.116;8.696;2023-02-03T16:43:12;1.52;;;0.80;;
78181;SDS011;67441;50.116;8.696;2023-02-03T16:44:32;2.42;;;1.30;;
78181;SDS011;67441;50.116;8.696;2023-02-03T16:45:54;2.75;;;0.90;;
78181;SDS011;67441;50.116;8.696;2023-02-03T16:47:20;4.45;;;0.80;;
78181;SDS011;67441;50.116;8.696;2023-02-03T16:48:43;3.13;;;0.90;;
78181;SDS011;67441;50.116;8.696;2023-02-03T16:50:02;5.75;;;1.00;;
78181;SDS011;67441;50.116;8.696;2023-02-03T16:51:21;3.22;;;0.80;;
78181;SDS011;67441;50.116;8.696;2023-02-03T16:52:22;5.03;;;0.98;;
78181;SDS011;67441;50.116;8.696;2023-02-03T16:53:23;2.83;;;0.80;;
78181;SDS011;67441;50.116;8.696;2023-02-03T16:54:25;1.80;;;0.70;;
78181;SDS011;67441;50.116;8.696;2023-02-03T16:55:27;2.47;;;0.90;;
78181;SDS011;67441;50.116;8.696;2023-02-03T16:56:27;2.33;;;0.70;;
78181;SDS011;67441;50.116;8.696;2023-02-03T16:57:27;2.22;;;0.82;;
78181;SDS011;67441;50.116;8.696;2023-02-03T16:58:27;3.72;;;0.90;;
78181;SDS011;67441;50.116;8.696;2023-02-03T16:59:28;2.58;;;0.85;;
78181;SDS011;67441;50.116;8.696;2023-02-03T17:00:28;1.95;;;0.60;;
78181;SDS011;67441;50.116;8.696;2023-02-03T17:01:28;3.42;;;0.80;;
78181;SDS011;67441;50.116;8.696;2023-02-03T17:02:28;3.03;;;0.73;;
78181;SDS011;67441;50.116;8.696;2023-02-03T17:03:29;2.13;;;0.63;;
78181;SDS011;67441;50.116;8.696;2023-02-03T17:04:31;5.20;;;0.98;;
78181;SDS011;67441;50.116;8.696;2023-02-03T17:05:35;4.50;;;0.80;;
78181;SDS011;67441;50.116;8.696;2023-02-03T17:06:37;4.78;;;1.00;;
78181;SDS011;67441;50.116;8.696;2023-02-03T17:07:38;3.92;;;1.10;;
78181;SDS011;67441;50.116;8.696;2023-02-03T17:08:39;2.60;;;0.95;;
78181;SDS011;67441;50.116;8.696;2023-02-03T17:09:40;1.58;;;0.73;;
78181;SDS011;67441;50.116;8.696;2023-02-03T17:10:41;3.15;;;0.80;;
78181;SDS011;67441;50.116;8.696;2023-02-03T17:11:43;2.15;;;0.90;;
78181;SDS011;67441;50.116;8.696;2023-02-03T17:12:43;6.28;;;0.98;;
78181;SDS011;67441;50.116;8.696;2023-02-03T17:13:43;3.13;;;1.45;;
78181;SDS011;67441;50.116;8.696;2023-02-03T17:14:44;4.38;;;1.30;;
78181;SDS011;67441;50.116;8.696;2023-02-03T17:15:46;1.85;;;0.73;;
78181;SDS011;67441;50.116;8.696;2023-02-03T17:16:47;2.15;;;0.73;;
78181;SDS011;67441;50.116;8.696;2023-02-03T17:17:48;2.88;;;0.70;;
78181;SDS011;67441;50.116;8.696;2023-02-03T17:18:48;2.97;;;0.90;;
78181;SDS011;67441;50.116;8.696;2023-02-03T17:19:49;2.05;;;0.80;;
78181;SDS011;67441;50.116;8.696;2023-02-03T17:20:49;3.25;;;1.15;;
78181;SDS011;67441;50.116;8.696;2023-02-03T17:21:50;3.28;;;0.95;;
78181;SDS011;67441;50.116;8.696;2023-02-03T17:22:50;2.92;;;0.82;;
78181;SDS011;67441;50.116;8.696;2023-02-03T17:23:53;6.55;;;1.38;;
78181;SDS011;67441;50.116;8.696;2023-02-03T17:24:53;2.90;;;0.80;;
78181;SDS011;67441;50.116;8.696;2023-02-03T17:25:54;1.83;;;0.63;;
78181;SDS011;67441;50.116;8.696;2023-02-03T17:26:54;5.22;;;0.90;;
78181;SDS011;67441;50.116;8.696;2023-02-03T17:27:55;1.73;;;0.82;;
78181;SDS011;67441;50.116;8.696;2023-02-03T17:28:55;2.08;;;0.63;;
78181;SDS011;67441;50.116;8.696;2023-02-03T17:30:02;5.63;;;1.10;;
78181;SDS011;67441;50.116;8.696;2023-02-03T17:31:04;5.80;;;1.10;;
78181;SDS011;67441;50.116;8.696;2023-02-03T17:32:06;3.15;;;0.95;;
78181;SDS011;67441;50.116;8.696;2023-02-03T17:33:07;3.85;;;0.82;;
78181;SDS011;67441;50.116;8.696;2023-02-03T17:34:11;1.92;;;0.98;;
78181;SDS011;67441;50.116;8.696;2023-02-03T17:35:11;5.35;;;1.30;;
78181;SDS011;67441;50.116;8.696;2023-02-03T17:36:12;2.38;;;0.93;;
78181;SDS011;67441;50.116;8.696;2023-02-03T17:37:14;3.38;;;1.10;;
78181;SDS011;67441;50.116;8.696;2023-02-03T17:38:15;4.25;;;0.82;;
78181;SDS011;67441;50.116;8.696;2023-02-03T17:39:15;4.13;;;0.80;;
78181;SDS011;67441;50.116;8.696;2023-02-03T17:40:15;2.97;;;1.17;;
78181;SDS011;67441;50.116;8.696;2023-02-03T17:41:19;3.85;;;0.90;;
78181;SDS011;67441;50.116;8.696;2023-02-03T17:42:20;3.70;;;0.82;;
78181;SDS011;67441;50.116;8.696;2023-02-03T17:43:21;2.00;;;0.75;;
78181;SDS011;67441;50.116;8.696;2023-02-03T17:44:21;4.22;;;1.20;;
78181;SDS011;67441;50.116;8.696;2023-02-03T17:45:21;5.50;;;0.80;;
78181;SDS011;67441;50.116;8.696;2023-02-03T17:46:22;4.88;;;1.00;;
78181;SDS011;67441;50.116;8.696;2023-02-03T17:47:24;3.08;;;0.80;;
78181;SDS011;67441;50.116;8.696;2023-02-03T17:48:24;3.20;;;0.90;;
78181;SDS011;67441;50.116;8.696;2023-02-03T17:49:24;4.78;;;1.20;;
78181;SDS011;67441;50.116;8.696;2023-02-03T17:50:25;6.40;;;1.30;;
78181;SDS011;67441;50.116;8.696;2023-02-03T17:51:25;4.13;;;0.80;;
78181;SDS011;67441;50.116;8.696;2023-02-03T17:52:28;3.63;;;0.77;;
78181;SDS011;67441;50.116;8.696;2023-02-03T17:53:28;3.40;;;0.70;;
78181;SDS011;67441;50.116;8.696;2023-02-03T17:54:29;3.63;;;0.93;;
78181;SDS011;67441;50.116;8.696;2023-02-03T17:55:30;3.80;;;0.90;;
78181;SDS011;67441;50.116;8.696;2023-02-03T17:56:31;2.83;;;0.98;;
78181;SDS011;67441;50.116;8.696;2023-02-03T17:57:37;1.95;;;0.70;;
78181;SDS011;67441;50.116;8.696;2023-02-03T17:58:38;2.28;;;1.10;;
78181;SDS011;67441;50.116;8.696;2023-02-03T17:59:39;2.17;;;0.80;;
78181;SDS011;67441;50.116;8.696;2023-02-03T18:00:40;2.17;;;0.70;;
78181;SDS011;67441;50.116;8.696;2023-02-03T18:01:40;3.28;;;1.10;;
78181;SDS011;67441;50.116;8.696;2023-02-03T18:02:41;1.95;;;1.00;;
78181;SDS011;67441;50.116;8.696;2023-02-03T18:03:42;4.47;;;1.05;;
78181;SDS011;67441;50.116;8.696;2023-02-03T18:04:50;2.55;;;1.00;;
78181;SDS011;67441;50.116;8.696;2023-02-03T18:05:50;1.92;;;0.70;;
78181;SDS011;67441;50.116;8.696;2023-02-03T18:06:51;1.67;;;0.75;;
78181;SDS011;67441;50.116;8.696;2023-02-03T18:08:54;4.55;;;1.02;;
78181;SDS011;67441;50.116;8.696;2023-02-03T18:10:00;4.00;;;0.95;;
78181;SDS011;67441;50.116;8.696;2023-02-03T18:11:00;3.28;;;0.73;;
78181;SDS011;67441;50.116;8.696;2023-02-03T18:12:02;3.30;;;0.77;;
78181;SDS011;67441;50.116;8.696;2023-02-03T18:13:02;2.20;;;0.77;;
78181;SDS011;67441;50.116;8.696;2023-02-03T18:14:03;1.95;;;0.52;;
78181;SDS011;67441;50.116;8.696;2023-02-03T18:15:04;2.53;;;0.70;;
78181;SDS011;67441;50.116;8.696;2023-02-03T18:16:05;1.92;;;0.70;;
78181;SDS011;67441;50.116;8.696;2023-02-03T18:17:07;1.25;;;0.90;;
78181;SDS011;67441;50.116;8.696;2023-02-03T18:18:07;5.13;;;1.02;;
78181;SDS011;67441;50.116;8.696;2023-02-03T18:19:09;1.85;;;0.82;;
78181;SDS011;67441;50.116;8.696;2023-02-03T18:20:13;0.82;;;0.60;;
78181;SDS011;67441;50.116;8.696;2023-02-03T18:21:13;3.40;;;0.90;;
78181;SDS011;67441;50.116;8.696;2023-02-03T18:22:14;2.90;;;0.70;;
78181;SDS011;67441;50.116;8.696;2023-02-03T18:23:15;2.08;;;0.70;;
78181;SDS011;67441;50.116;8.696;2023-02-03T18:24:15;2.58;;;0.75;;
78181;SDS011;67441;50.116;8.696;2023-02-03T18:25:17;1.88;;;0.90;;
78181;SDS011;67441;50.116;8.696;2023-02-03T18:26:18;4.15;;;0.85;;
78181;SDS011;67441;50.116;8.696;2023-02-03T18:27:19;2.15;;;0.70;;
78181;SDS011;67441;50.116;8.696;2023-02-03T18:28:20;2.13;;;0.75;;
78181;SDS011;67441;50.116;8.696;2023-02-03T18:29:21;3.47;;;1.20;;
78181;SDS011;67441;50.116;8.696;2023-02-03T18:31:23;3.37;;;1.13;;
78181;SDS011;67441;50.116;8.696;2023-02-03T18:32:24;3.60;;;1.27;;
78181;SDS011;67441;50.116;8.696;2023-02-03T18:33:24;5.00;;;1.70;;
78181;SDS011;67441;50.116;8.696;2023-02-03T18:34:24;3.78;;;1.33;;
78181;SDS011;67441;50.116;8.696;2023-02-03T18:35:25;2.70;;;1.17;;
78181;SDS011;67441;50.116;8.696;2023-02-03T18:36:25;2.13;;;1.42;;
78181;SDS011;67441;50.116;8.696;2023-02-03T18:37:25;2.72;;;1.17;;
78181;SDS011;67441;50.116;8.696;2023-02-03T18:38:29;7.10;;;1.80;;
78181;SDS011;67441;50.116;8.696;2023-02-03T18:39:32;2.50;;;1.30;;
78181;SDS011;67441;50.116;8.696;2023-02-03T18:40:32;3.35;;;1.42;;
78181;SDS011;67441;50.116;8.696;2023-02-03T18:41:36;3.78;;;1.48;;
78181;SDS011;67441;50.116;8.696;2023-02-03T18:42:37;5.68;;;1.63;;
78181;SDS011;67441;50.116;8.696;2023-02-03T18:43:37;3.72;;;1.60;;
78181;SDS011;67441;50.116;8.696;2023-02-03T18:44:38;3.75;;;1.77;;
78181;SDS011;67441;50.116;8.696;2023-02-03T18:45:40;2.97;;;1.40;;
78181;SDS011;67441;50.116;8.696;2023-02-03T18:46:40;6.63;;;2.67;;
78181;SDS011;67441;50.116;8.696;2023-02-03T18:47:40;4.25;;;2.17;;
78181;SDS011;67441;50.116;8.696;2023-02-03T18:48:40;3.42;;;1.60;;
78181;SDS011;67441;50.116;8.696;2023-02-03T18:49:41;4.45;;;1.73;;
78181;SDS011;67441;50.116;8.696;2023-02-03T18:50:41;5.80;;;2.00;;
78181;SDS011;67441;50.116;8.696;2023-02-03T18:51:42;4.45;;;2.03;;
78181;SDS011;67441;50.116;8.696;2023-02-03T18:52:42;5.93;;;2.25;;
78181;SDS011;67441;50.116;8.696;2023-02-03T18:53:43;4.05;;;1.92;;
78181;SDS011;67441;50.116;8.696;2023-02-03T18:54:45;6.22;;;2.05;;
78181;SDS011;67441;50.116;8.696;2023-02-03T18:55:45;4.03;;;1.83;;
78181;SDS011;67441;50.116;8.696;2023-02-03T18:56:46;6.65;;;2.17;;
78181;SDS011;67441;50.116;8.696;2023-02-03T18:57:47;3.35;;;1.65;;
78181;SDS011;67441;50.116;8.696;2023-02-03T18:58:47;5.30;;;2.05;;
78181;SDS011;67441;50.116;8.696;2023-02-03T18:59:48;4.85;;;1.90;;
78181;SDS011;67441;50.116;8.696;2023-02-03T19:00:48;5.38;;;2.10;;
78181;SDS011;67441;50.116;8.696;2023-02-03T19:01:49;7.35;;;1.88;;
78181;SDS011;67441;50.116;8.696;2023-02-03T19:02:50;7.15;;;2.00;;
78181;SDS011;67441;50.116;8.696;2023-02-03T19:03:50;5.28;;;1.95;;
78181;SDS011;67441;50.116;8.696;2023-02-03T19:04:51;4.90;;;1.65;;
78181;SDS011;67441;50.116;8.696;2023-02-03T19:05:51;6.63;;;1.85;;
78181;SDS011;67441;50.116;8.696;2023-02-03T19:06:52;4.78;;;1.95;;
78181;SDS011;67441;50.116;8.696;2023-02-03T19:07:52;3.13;;;1.55;;
78181;SDS011;67441;50.116;8.696;2023-02-03T19:08:53;5.38;;;2.30;;
78181;SDS011;67441;50.116;8.696;2023-02-03T19:09:53;4.38;;;1.75;;
78181;SDS011;67441;50.116;8.696;2023-02-03T19:10:53;3.45;;;1.50;;
78181;SDS011;67441;50.116;8.696;2023-02-03T19:11:54;5.05;;;1.75;;
78181;SDS011;67441;50.116;8.696;2023-02-03T19:12:57;4.15;;;2.30;;
78181;SDS011;67441;50.116;8.696;2023-02-03T19:13:57;4.43;;;1.83;;
78181;SDS011;67441;50.116;8.696;2023-02-03T19:14:58;4.05;;;1.77;;
78181;SDS011;67441;50.116;8.696;2023-02-03T19:15:58;5.75;;;1.58;;
78181;SDS011;67441;50.116;8.696;2023-02-03T19:17:01;3.83;;;1.95;;
78181;SDS011;67441;50.116;8.696;2023-02-03T19:18:02;4.22;;;1.65;;
78181;SDS011;67441;50.116;8.696;2023-02-03T19:19:02;7.53;;;2.72;;
78181;SDS011;67441;50.116;8.696;2023-02-03T19:20:03;5.10;;;2.20;;
78181;SDS011;67441;50.116;8.696;2023-02-03T19:21:05;4.55;;;1.70;;
78181;SDS011;67441;50.116;8.696;2023-02-03T19:22:06;8.00;;;2.97;;
78181;SDS011;67441;50.116;8.696;2023-02-03T19:23:06;7.65;;;2.83;;
78181;SDS011;67441;50.116;8.696;2023-02-03T19:24:07;19.73;;;3.60;;
78181;SDS011;67441;50.116;8.696;2023-02-03T19:25:08;14.98;;;4.20;;
78181;SDS011;67441;50.116;8.696;2023-02-03T19:26:08;20.17;;;4.55;;
78181;SDS011;67441;50.116;8.696;2023-02-03T19:27:10;22.30;;;4.20;;
78181;SDS011;67441;50.116;8.696;2023-02-03T19:28:11;21.55;;;4.65;;
78181;SDS011;67441;50.116;8.696;2023-02-03T19:29:11;19.90;;;4.03;;
78181;SDS011;67441;50.116;8.696;2023-02-03T19:30:11;19.20;;;4.35;;
78181;SDS011;67441;50.116;8.696;2023-02-03T19:31:13;26.50;;;4.80;;
78181;SDS011;67441;50.116;8.696;2023-02-03T19:33:14;20.00;;;4.80;;
78181;SDS011;67441;50.116;8.696;2023-02-03T19:34:15;14.52;;;4.35;;
78181;SDS011;67441;50.116;8.696;2023-02-03T19:35:16;14.95;;;4.22;;
78181;SDS011;67441;50.116;8.696;2023-02-03T19:36:17;19.58;;;4.72;;
78181;SDS011;67441;50.116;8.696;2023-02-03T19:37:17;17.15;;;4.25;;
78181;SDS011;67441;50.116;8.696;2023-02-03T19:38:17;18.30;;;4.68;;
78181;SDS011;67441;50.116;8.696;2023-02-03T19:39:18;14.32;;;4.07;;
78181;SDS011;67441;50.116;8.696;2023-02-03T19:40:20;15.52;;;4.47;;
78181;SDS011;67441;50.116;8.696;2023-02-03T19:41:20;14.23;;;4.10;;
78181;SDS011;67441;50.116;8.696;2023-02-03T19:42:21;14.00;;;3.83;;
78181;SDS011;67441;50.116;8.696;2023-02-03T19:43:21;18.65;;;4.68;;
78181;SDS011;67441;50.116;8.696;2023-02-03T19:44:23;16.13;;;4.13;;
78181;SDS011;67441;50.116;8.696;2023-02-03T19:45:24;16.13;;;4.10;;
78181;SDS011;67441;50.116;8.696;2023-02-03T19:46:25;18.25;;;4.18;;
78181;SDS011;67441;50.116;8.696;2023-02-03T19:47:30;16.42;;;3.88;;
78181;SDS011;67441;50.116;8.696;2023-02-03T19:48:31;11.65;;;3.63;;
78181;SDS011;67441;50.116;8.696;2023-02-03T19:49:31;24.10;;;4.25;;
78181;SDS011;67441;50.116;8.696;2023-02-03T19:50:32;31.25;;;5.22;;
78181;SDS011;67441;50.116;8.696;2023-02-03T19:51:33;26.95;;;4.97;;
78181;SDS011;67441;50.116;8.696;2023-02-03T19:52:33;36.22;;;5.50;;
78181;SDS011;67441;50.116;8.696;2023-02-03T19:53:33;42.97;;;5.72;;
78181;SDS011;67441;50.116;8.696;2023-02-03T19:54:34;22.33;;;6.07;;
78181;SDS011;67441;50.116;8.696;2023-02-03T19:55:34;28.83;;;4.43;;
78181;SDS011;67441;50.116;8.696;2023-02-03T19:56:35;21.02;;;4.10;;
78181;SDS011;67441;50.116;8.696;2023-02-03T19:57:35;20.92;;;4.13;;
78181;SDS011;67441;50.116;8.696;2023-02-03T19:58:36;14.10;;;3.58;;
78181;SDS011;67441;50.116;8.696;2023-02-03T19:59:37;19.17;;;3.97;;
78181;SDS011;67441;50.116;8.696;2023-02-03T20:00:37;22.45;;;4.70;;
78181;SDS011;67441;50.116;8.696;2023-02-03T20:01:38;20.02;;;3.95;;
78181;SDS011;67441;50.116;8.696;2023-02-03T20:02:39;16.30;;;3.20;;
78181;SDS011;67441;50.116;8.696;2023-02-03T20:03:39;24.45;;;4.03;;
78181;SDS011;67441;50.116;8.696;2023-02-03T20:04:41;18.45;;;3.85;;
78181;SDS011;67441;50.116;8.696;2023-02-03T20:05:42;20.90;;;4.15;;
78181;SDS011;67441;50.116;8.696;2023-02-03T20:06:43;23.02;;;3.65;;
78181;SDS011;67441;50.116;8.696;2023-02-03T20:07:44;18.63;;;3.35;;
78181;SDS011;67441;50.116;8.696;2023-02-03T20:08:44;22.13;;;4.30;;
78181;SDS011;67441;50.116;8.696;2023-02-03T20:09:44;20.08;;;4.07;;
78181;SDS011;67441;50.116;8.696;2023-02-03T20:10:45;23.38;;;3.60;;
78181;SDS011;67441;50.116;8.696;2023-02-03T20:11:45;21.83;;;3.65;;
78181;SDS011;67441;50.116;8.696;2023-02-03T20:12:46;26.48;;;4.72;;
78181;SDS011;67441;50.116;8.696;2023-02-03T20:13:46;20.65;;;3.78;;
78181;SDS011;67441;50.116;8.696;2023-02-03T20:14:47;27.95;;;3.92;;
78181;SDS011;67441;50.116;8.696;2023-02-03T20:15:48;21.48;;;4.40;;
78181;SDS011;67441;50.116;8.696;2023-02-03T20:16:48;16.88;;;4.10;;
78181;SDS011;67441;50.116;8.696;2023-02-03T20:17:49;19.55;;;3.95;;
78181;SDS011;67441;50.116;8.696;2023-02-03T20:18:50;22.67;;;3.40;;
78181;SDS011;67441;50.116;8.696;2023-02-03T20:19:50;14.05;;;3.53;;
78181;SDS011;67441;50.116;8.696;2023-02-03T20:20:51;17.67;;;3.42;;
78181;SDS011;67441;50.116;8.696;2023-02-03T20:21:54;21.15;;;3.45;;
78181;SDS011;67441;50.116;8.696;2023-02-03T20:22:54;18.00;;;3.08;;
78181;SDS011;67441;50.116;8.696;2023-02-03T20:23:54;19.45;;;3.25;;
78181;SDS011;67441;50.116;8.696;2023-02-03T20:24:54;17.45;;;3.22;;
78181;SDS011;67441;50.116;8.696;2023-02-03T20:25:55;11.57;;;2.55;;
78181;SDS011;67441;50.116;8.696;2023-02-03T20:26:56;14.60;;;3.10;;
78181;SDS011;67441;50.116;8.696;2023-02-03T20:27:56;11.60;;;2.65;;
78181;SDS011;67441;50.116;8.696;2023-02-03T20:28:58;12.93;;;3.88;;
78181;SDS011;67441;50.116;8.696;2023-02-03T20:29:59;17.08;;;2.85;;
78181;SDS011;67441;50.116;8.696;2023-02-03T20:30:59;18.70;;;3.70;;
78181;SDS011;67441;50.116;8.696;2023-02-03T20:32:01;9.95;;;3.30;;
78181;SDS011;67441;50.116;8.696;2023-02-03T20:33:03;19.48;;;2.92;;
78181;SDS011;67441;50.116;8.696;2023-02-03T20:34:03;18.25;;;3.03;;
78181;SDS011;67441;50.116;8.696;2023-02-03T20:35:04;20.40;;;3.35;;
78181;SDS011;67441;50.116;8.696;2023-02-03T20:36:05;16.85;;;3.30;;
78181;SDS011;67441;50.116;8.696;2023-02-03T20:37:06;20.95;;;3.95;;
78181;SDS011;67441;50.116;8.696;2023-02-03T20:38:07;13.20;;;3.53;;
78181;SDS011;67441;50.116;8.696;2023-02-03T20:39:12;14.90;;;3.13;;
78181;SDS011;67441;50.116;8.696;2023-02-03T20:40:17;18.35;;;3.53;;
78181;SDS011;67441;50.116;8.696;2023-02-03T20:41:23;13.15;;;2.72;;
78181;SDS011;67441;50.116;8.696;2023-02-03T20:42:23;19.92;;;3.10;;
78181;SDS011;67441;50.116;8.696;2023-02-03T20:43:24;15.45;;;2.75;;
78181;SDS011;67441;50.116;8.696;2023-02-03T20:44:26;16.42;;;2.92;;
78181;SDS011;67441;50.116;8.696;2023-02-03T20:45:27;16.42;;;2.33;;
78181;SDS011;67441;50.116;8.696;2023-02-03T20:46:27;21.58;;;3.38;;
78181;SDS011;67441;50.116;8.696;2023-02-03T20:47:27;19.67;;;3.15;;
78181;SDS011;67441;50.116;8.696;2023-02-03T20:48:28;19.83;;;2.92;;
78181;SDS011;67441;50.116;8.696;2023-02-03T20:49:29;16.92;;;2.65;;
78181;SDS011;67441;50.116;8.696;2023-02-03T20:50:29;16.35;;;3.17;;
78181;SDS011;67441;50.116;8.696;2023-02-03T20:51:29;13.63;;;2.58;;
78181;SDS011;67441;50.116;8.696;2023-02-03T20:52:30;14.38;;;2.80;;
78181;SDS011;67441;50.116;8.696;2023-02-03T20:53:31;13.20;;;2.88;;
78181;SDS011;67441;50.116;8.696;2023-02-03T20:54:31;17.20;;;3.03;;
78181;SDS011;67441;50.116;8.696;2023-02-03T20:55:31;18.42;;;3.35;;
78181;SDS011;67441;50.116;8.696;2023-02-03T20:56:35;16.05;;;2.83;;
78181;SDS011;67441;50.116;8.696;2023-02-03T20:57:35;16.27;;;2.75;;
78181;SDS011;67441;50.116;8.696;2023-02-03T20:58:35;19.23;;;2.90;;
78181;SDS011;67441;50.116;8.696;2023-02-03T20:59:36;10.15;;;2.78;;
78181;SDS011;67441;50.116;8.696;2023-02-03T21:00:37;12.32;;;2.60;;
78181;SDS011;67441;50.116;8.696;2023-02-03T21:01:38;10.63;;;2.53;;
78181;SDS011;67441;50.116;8.696;2023-02-03T21:02:38;8.15;;;2.30;;
78181;SDS011;67441;50.116;8.696;2023-02-03T21:03:57;18.85;;;3.70;;
78181;SDS011;67441;50.116;8.696;2023-02-03T21:05:25;7.22;;;2.70;;
78181;SDS011;67441;50.116;8.696;2023-02-03T21:06:28;17.40;;;2.85;;
78181;SDS011;67441;50.116;8.696;2023-02-03T21:07:29;17.15;;;3.30;;
78181;SDS011;67441;50.116;8.696;2023-02-03T21:08:30;13.30;;;2.85;;